createdAt,value
2022-11-26T01:21:41.198Z,4.42
2022-11-26T01:24:11.005Z,1.15
2022-11-26T01:26:42.525Z,0.88
2022-11-26T01:29:16.219Z,0.54
2022-11-26T01:31:49.638Z,0.70
2022-11-26T01:34:22.991Z,0.71
2022-11-26T01:36:56.410Z,5.02
2022-11-26T01:39:26.264Z,5.51
2022-11-26T01:42:14.605Z,5.05
2022-11-26T01:44:47.293Z,5.19
2022-11-26T01:47:23.105Z,5.33
2022-11-26T01:50:40.899Z,5.59
2022-11-26T01:53:18.028Z,5.05
2022-11-26T01:55:51.384Z,4.93
2022-11-26T01:58:26.052Z,5.23
2022-11-26T02:00:55.533Z,5.59
2022-11-26T02:03:29.801Z,3.46
2022-11-26T02:06:05.028Z,4.41
2022-11-26T02:08:44.119Z,3.92
2022-11-26T02:11:21.680Z,5.44
2022-11-26T02:13:54.156Z,5.02
2022-11-26T02:16:56.705Z,4.37
2022-11-26T02:20:15.313Z,3.53
2022-11-26T02:23:27.613Z,4.47
2022-11-26T02:26:31.637Z,5.49
2022-11-26T02:29:11.449Z,5.65
2022-11-26T03:25:17.005Z,4.83
2022-11-26T03:27:47.451Z,3.86
2022-11-26T03:30:17.072Z,4.74
2022-11-26T03:32:47.118Z,4.49
2022-11-26T03:35:17.353Z,4.84
2022-11-26T03:37:46.800Z,4.79
2022-11-26T03:40:17.821Z,5.17
2022-11-26T03:42:46.719Z,5.20
2022-11-26T03:45:16.020Z,5.45
2022-11-26T03:47:48.685Z,5.37
2022-11-26T03:50:18.734Z,5.23
2022-11-26T03:52:50.079Z,5.25
2022-11-26T03:55:20.584Z,4.95
2022-11-26T03:57:50.176Z,5.68
2022-11-26T04:00:20.672Z,6.10
2022-11-26T04:02:50.028Z,6.13
2022-11-26T04:05:20.444Z,5.89
2022-11-26T04:07:52.941Z,5.97
2022-11-26T04:10:24.169Z,6.18
2022-11-26T04:12:53.576Z,6.47
2022-11-26T04:15:22.966Z,6.47
2022-11-26T04:17:52.897Z,5.35
2022-11-26T04:20:22.561Z,5.84
2022-11-26T04:22:52.265Z,4.91
2022-11-26T04:25:21.553Z,5.79
2022-11-26T04:27:58.432Z,5.19
2022-11-26T04:30:29.907Z,5.70
2022-11-26T04:33:00.258Z,5.74
2022-11-26T04:35:29.913Z,6.00
2022-11-26T04:37:59.038Z,3.68
2022-11-26T04:40:27.967Z,5.49
2022-11-26T04:42:58.431Z,5.73
2022-11-26T04:45:28.771Z,5.61
2022-11-26T04:47:58.812Z,5.16
2022-11-26T04:50:28.368Z,5.26
2022-11-26T04:52:57.747Z,5.50
2022-11-26T04:55:27.307Z,5.56
2022-11-26T04:57:56.020Z,5.81
2022-11-26T05:00:27.092Z,5.38
2022-11-26T05:02:56.402Z,5.63
2022-11-26T05:05:25.862Z,5.63
2022-11-26T05:07:55.246Z,5.83
2022-11-26T05:10:24.970Z,5.99
2022-11-26T05:12:54.329Z,5.40
2022-11-26T05:15:24.108Z,3.92
2022-11-26T05:17:54.945Z,4.28
2022-11-26T05:20:24.478Z,4.72
2022-11-26T05:22:56.006Z,5.14
2022-11-26T05:25:25.223Z,5.47
2022-11-26T05:27:54.784Z,5.51
2022-11-26T05:30:26.487Z,5.29
2022-11-26T05:32:57.085Z,5.42
2022-11-26T05:35:26.388Z,5.38
2022-11-26T05:37:57.820Z,5.58
2022-11-26T05:40:27.384Z,5.75
2022-11-26T05:42:56.475Z,5.56
2022-11-26T05:45:26.085Z,5.63
2022-11-26T05:47:56.630Z,4.88
2022-11-26T05:50:26.225Z,5.39
2022-11-26T05:52:56.138Z,5.33
2022-11-26T05:55:26.192Z,5.53
2022-11-26T05:57:56.022Z,4.77
2022-11-26T06:00:26.737Z,4.95
2022-11-26T06:02:57.693Z,5.18
2022-11-26T06:05:26.985Z,4.77
2022-11-26T06:07:56.554Z,4.52
2022-11-26T06:10:54.688Z,5.21
2022-11-26T06:13:24.289Z,4.42
2022-11-26T06:15:53.659Z,4.93
2022-11-26T06:18:24.308Z,4.64
2022-11-26T06:20:53.322Z,4.64
2022-11-26T06:23:22.769Z,4.70
2022-11-26T06:25:52.407Z,4.63
2022-11-26T06:28:22.810Z,4.52
2022-11-26T06:30:52.229Z,4.73
2022-11-26T06:33:21.725Z,4.38
2022-11-26T06:35:52.822Z,2.75
2022-11-26T06:38:23.439Z,3.23
2022-11-26T06:41:00.153Z,1.88
2022-11-26T06:43:30.884Z,3.22
2022-11-26T06:46:03.598Z,3.22
2022-11-26T06:48:33.772Z,3.58
2022-11-26T06:51:07.897Z,2.28
2022-11-26T06:53:38.525Z,3.41
2022-11-26T06:56:18.146Z,1.66
2022-11-26T06:58:49.971Z,4.24
2022-11-26T07:01:21.386Z,1.89
2022-11-26T07:03:51.851Z,1.77
2022-11-26T07:06:31.707Z,4.77
2022-11-26T07:09:06.021Z,3.55
2022-11-26T07:11:37.809Z,3.53
2022-11-26T07:14:08.081Z,3.34
2022-11-26T07:16:37.651Z,1.58
2022-11-26T07:19:07.865Z,2.79
2022-11-26T07:21:40.001Z,3.15
2022-11-26T07:24:36.374Z,3.57
2022-11-26T07:27:10.546Z,1.80
2022-11-26T07:29:42.412Z,3.52
2022-11-26T07:32:12.632Z,4.43
2022-11-26T07:34:45.860Z,4.52
2022-11-26T07:37:25.503Z,4.80
2022-11-26T07:39:56.247Z,2.46
2022-11-26T07:42:27.720Z,4.54
2022-11-26T07:44:57.542Z,3.52
2022-11-26T07:47:27.763Z,4.51
2022-11-26T07:50:00.434Z,4.34
2022-11-26T07:52:31.032Z,4.90
2022-11-26T07:55:09.554Z,4.43
2022-11-26T07:57:41.571Z,4.46
2022-11-26T08:00:14.285Z,4.35
2022-11-26T08:02:43.499Z,3.85
2022-11-26T08:05:13.736Z,4.57
2022-11-26T08:07:44.910Z,4.87
2022-11-26T08:10:16.565Z,4.38
2022-11-26T08:12:47.082Z,3.93
2022-11-26T08:15:17.785Z,4.58
2022-11-26T08:17:48.398Z,3.55
2022-11-26T08:20:39.342Z,2.57
2022-11-26T08:23:12.032Z,4.83
2022-11-26T08:25:59.547Z,4.54
2022-11-26T08:28:34.112Z,2.49
2022-11-26T08:31:04.865Z,5.25
2022-11-26T08:33:35.728Z,4.20
2022-11-26T08:36:09.690Z,3.22
2022-11-26T08:38:41.230Z,3.66
2022-11-26T08:41:13.848Z,4.62
2022-11-26T08:46:37.028Z,2.70
2022-11-26T08:49:07.589Z,3.03
2022-11-26T08:51:42.010Z,4.83
2022-11-26T08:54:14.115Z,4.54
2022-11-26T08:56:44.005Z,5.21
2022-11-26T08:59:29.177Z,5.23
2022-11-26T09:02:00.072Z,5.19
2022-11-26T09:04:33.064Z,5.12
2022-11-26T09:07:04.382Z,4.23
2022-11-26T09:09:39.326Z,4.14
2022-11-26T09:12:15.518Z,5.16
2022-11-26T09:14:48.815Z,3.38
2022-11-26T09:17:25.688Z,4.16
2022-11-26T09:20:00.218Z,4.88
2022-11-26T09:22:37.474Z,5.47
2022-11-26T09:25:09.862Z,5.45
2022-11-26T09:27:42.691Z,4.14
2022-11-26T09:30:27.041Z,4.07
2022-11-26T09:33:05.780Z,5.74
2022-11-26T09:35:41.522Z,5.16
2022-11-26T09:38:19.374Z,5.33
2022-11-26T09:40:59.923Z,5.40
2022-11-26T09:43:45.224Z,5.82
2022-11-26T09:46:41.029Z,5.41
2022-11-26T09:49:21.441Z,5.55
2022-11-26T09:52:04.949Z,5.57
2022-11-26T09:54:39.515Z,5.10
2022-11-26T09:57:24.552Z,5.93
2022-11-26T09:59:59.950Z,5.99
2022-11-26T10:02:37.976Z,5.96
2022-11-26T10:05:27.834Z,4.94
2022-11-26T10:08:17.063Z,5.53
2022-11-26T10:10:54.449Z,5.73
2022-11-26T10:13:38.710Z,5.23
2022-11-26T10:16:22.901Z,5.80
2022-11-26T10:19:04.752Z,5.45
2022-11-26T10:22:04.297Z,4.29
2022-11-26T10:24:39.250Z,5.67
2022-11-26T10:27:16.734Z,3.96
2022-11-26T10:29:52.005Z,4.71
2022-11-26T10:32:27.228Z,3.83
2022-11-26T10:34:58.380Z,4.31
2022-11-26T10:37:30.393Z,3.81
2022-11-26T10:40:18.039Z,4.25
2022-11-26T10:43:00.251Z,4.52
2022-11-26T10:45:40.821Z,5.78
2022-11-26T10:48:22.221Z,5.21
2022-11-26T10:51:10.653Z,4.65
2022-11-26T10:53:53.551Z,2.95
2022-11-26T10:56:27.946Z,2.57
2022-11-26T10:59:03.029Z,4.17
2022-11-26T11:01:39.854Z,4.24
2022-11-26T11:04:28.766Z,3.97
2022-11-26T11:07:04.334Z,4.16
2022-11-26T11:09:39.163Z,3.86
2022-11-26T11:12:35.993Z,4.04
2022-11-26T11:15:25.142Z,4.85
2022-11-26T11:18:01.991Z,5.47
2022-11-26T11:20:41.659Z,5.48
2022-11-26T11:23:34.788Z,5.06
2022-11-26T11:26:20.538Z,5.29
2022-11-26T11:28:52.257Z,4.97
2022-11-26T11:31:26.144Z,4.80
2022-11-26T11:34:19.520Z,4.98
2022-11-26T11:37:00.486Z,5.15
2022-11-26T11:39:31.208Z,4.82
2022-11-26T11:42:39.917Z,5.00
2022-11-26T11:45:23.887Z,4.57
2022-11-26T11:48:01.865Z,3.71
2022-11-26T11:50:35.977Z,4.71
2022-11-26T11:53:20.768Z,4.98
2022-11-26T11:56:24.646Z,4.12
2022-11-26T11:59:48.046Z,3.11
2022-11-26T12:02:37.570Z,2.97
2022-11-26T12:05:32.879Z,2.85
2022-11-26T12:08:13.756Z,2.30
2022-11-26T12:10:54.726Z,3.07
2022-11-26T12:13:26.991Z,5.05
2022-11-26T12:16:06.482Z,3.98
2022-11-26T12:18:46.160Z,2.09
2022-11-26T12:21:18.043Z,3.52
2022-11-26T12:23:59.456Z,4.04
2022-11-26T12:26:34.686Z,2.73
2022-11-26T12:29:12.366Z,3.68
2022-11-26T12:31:48.174Z,4.81
2022-11-26T12:34:45.502Z,3.70
2022-11-26T12:37:21.230Z,3.45
2022-11-26T12:40:01.070Z,4.11
2022-11-26T12:42:42.348Z,3.27
2022-11-26T12:45:21.266Z,3.68
2022-11-26T12:47:56.527Z,3.32
2022-11-26T12:51:36.033Z,5.27
2022-11-26T12:54:17.222Z,4.42
2022-11-26T12:57:02.469Z,3.09
2022-11-26T12:59:46.548Z,2.31
2022-11-26T13:02:23.456Z,2.63
2022-11-26T13:04:55.582Z,2.51
2022-11-26T13:07:42.566Z,4.08
2022-11-26T13:10:41.191Z,2.52
2022-11-26T13:13:26.584Z,2.54
2022-11-26T13:16:08.486Z,4.97
2022-11-26T13:18:43.088Z,2.78
2022-11-26T13:21:32.028Z,2.78
2022-11-26T13:24:20.858Z,3.25
2022-11-26T13:27:16.224Z,3.11
2022-11-26T13:30:34.813Z,4.19
2022-11-26T13:33:35.634Z,4.29
2022-11-26T13:36:29.714Z,2.27
2022-11-26T13:39:24.825Z,2.75
2022-11-26T13:42:31.189Z,2.33
2022-11-26T13:45:57.840Z,3.72
2022-11-26T13:48:50.963Z,3.22
2022-11-26T13:51:31.215Z,3.92
2022-11-26T13:54:06.601Z,4.15
2022-11-26T13:56:38.227Z,4.70
2022-11-26T13:59:17.522Z,4.29
2022-11-26T14:01:47.551Z,4.38
2022-11-26T14:04:55.218Z,4.33
2022-11-26T14:07:24.561Z,4.40
2022-11-26T14:09:56.631Z,4.80
2022-11-26T14:12:47.108Z,4.29
2022-11-26T14:15:49.611Z,4.96
2022-11-26T14:19:07.337Z,4.61
2022-11-26T14:22:03.856Z,4.82
2022-11-26T14:24:56.630Z,4.96
2022-11-26T14:27:27.846Z,5.35
2022-11-26T14:30:12.009Z,5.37
2022-11-26T14:32:44.367Z,4.73
2022-11-26T14:35:21.807Z,5.37
2022-11-26T14:38:03.369Z,4.15
2022-11-26T14:40:35.134Z,2.70
2022-11-26T14:43:17.676Z,4.94
2022-11-26T14:46:04.842Z,3.88
2022-11-26T14:48:39.073Z,3.59
2022-11-26T14:51:10.156Z,4.98
2022-11-26T14:53:50.328Z,4.83
2022-11-26T14:56:28.361Z,3.31
2022-11-26T14:59:01.443Z,2.80
2022-11-26T15:01:32.519Z,4.93
2022-11-26T15:04:03.751Z,5.00
2022-11-26T15:06:47.447Z,5.16
2022-11-26T15:09:19.660Z,3.42
2022-11-26T15:11:55.162Z,3.66
2022-11-26T15:14:29.854Z,3.54
2022-11-26T15:17:01.786Z,4.93
2022-11-26T22:35:39.360Z,-1.92
2022-11-26T22:38:14.636Z,-1.70
2022-11-26T22:40:47.995Z,0.55
2022-11-26T22:43:22.945Z,-1.32
2022-11-26T22:45:58.322Z,-0.83
2022-11-26T22:48:29.267Z,0.13
2022-11-26T22:51:01.472Z,-0.11
2022-11-26T22:53:31.424Z,0.15
2022-11-26T22:56:02.367Z,1.01
2022-11-26T22:58:34.081Z,0.41
2022-11-26T23:01:05.154Z,0.82
2022-11-26T23:03:36.936Z,1.08
2022-11-26T23:06:12.358Z,1.01
2022-11-26T23:08:43.188Z,0.90
2022-11-26T23:11:20.481Z,1.03
2022-11-26T23:13:51.220Z,1.27
2022-11-26T23:16:25.153Z,0.57
2022-11-26T23:18:56.309Z,1.32
2022-11-26T23:21:29.600Z,0.54
2022-11-26T23:23:59.072Z,1.08
2022-11-26T23:26:30.234Z,1.19
2022-11-26T23:29:00.895Z,1.31
2022-11-26T23:31:33.351Z,1.30
2022-11-26T23:34:03.405Z,1.29
2022-11-26T23:36:34.761Z,1.16
2022-11-26T23:39:06.865Z,1.13
2022-11-26T23:41:36.575Z,1.12
2022-11-26T23:44:05.815Z,0.90
2022-11-26T23:46:36.349Z,0.85
2022-11-26T23:49:05.816Z,1.16
2022-11-26T23:51:36.085Z,0.85
2022-11-26T23:54:05.600Z,1.08
2022-11-26T23:56:35.845Z,1.18
2022-11-26T23:59:06.247Z,0.31
